Bartlett Cove, AK

12:55 PM AKST on January 16, 2017 (GMT -0900)
Gustavus | | Change Station

Elev 33 ft 58.42 °N, 135.71 °W | Updated 59 minutes ago

Overcast
Overcast
43 °F
Feels Like 34 °F
N
24
Wind Variable Wind from SE

Today
High -- | Low -- °F
--% Chance of Precip.
Yesterday
High -- | Low -- °F
Precip. -- in
Pressure 29.02 in
Visibility 9.0 miles
Clouds Few 2700 ft
Overcast 3500 ft
Windchill 34 °F
Dew Point 39 °F
Humidity 86%
Rainfall 0.98 in
Snow Depth Not available.
8:37 AM 3:49 PM
Waning Gibbous, 78% visible
METAR PAGS 162056Z AUTO 14021KT 9SM -RA FEW027 OVC035 06/04 A2901 RMK AO2 PK WND 13026/2031 SLP825 P0003 60013 T00610039 58001
Pressure 29.02 in
Visibility 9.0 miles
Clouds Few 2700 ft
Overcast 3500 ft
Windchill 34 °F
Dew Point 39 °F
Humidity 86%
Rainfall 0.98 in
Snow Depth Not available.
8:37 AM 3:49 PM
Waning Gibbous, 78% visible
METAR PAGS 162056Z AUTO 14021KT 9SM -RA FEW027 OVC035 06/04 A2901 RMK AO2 PK WND 13026/2031 SLP825 P0003 60013 T00610039 58001

Get Your Daily Forecast Email!

Thanks for signing up!

Be on the lookout for a verification email in your inbox.

You'll start receiving the daily forecast at 8 AM.

×

10-Day Weather Forecast

Almanac

Astronomy

Jan. 16, 2017 Rise Set
Actual Time
Civil Twilight
Nautical Twilight
Astronomical Twilight
Moon
Length of Visible Light
Length of Day
Tomorrow will be .
, % of the Moon is Illuminated

Today's Extremes

State Highs State Lows

Community

WunderPhotos

Upload Photos

1,962,540 photos uploaded!

WunderBlog® & News

Nearby

Air Quality

  Air Quality AQ Index Pollutant
Not available.

Snow Depth

Station Depth Elevation

Earthquake Activity

City Distance Mag. Time & Date
Minimum magnitude displayed is 2.5.

Coastal Water Temperatures

Place Temperature

Stations

Nearby Weather Stations

Station Location Temp. Windchill Dew Point Humidity Wind Precip. Elev Updated Type
                   

Watches & Warnings

There are currently no watches in effect.